createdAt,value
2024-02-10T00:00:37.048Z,27.4286
2024-02-10T00:01:37.095Z,30.4286
2024-02-10T00:02:37.045Z,28.4286
2024-02-10T00:03:37.058Z,27.3571
2024-02-10T00:04:37.154Z,30.1429
2024-02-10T00:05:37.194Z,30.4286
2024-02-10T00:06:37.104Z,30.7143
2024-02-10T00:07:37.088Z,29.2143
2024-02-10T00:08:37.137Z,28.4286
2024-02-10T00:09:37.114Z,29.2143
2024-02-10T00:10:37.128Z,29.6429
2024-02-10T00:11:37.116Z,30.7143
2024-02-10T00:12:37.118Z,31.5
2024-02-10T00:13:40.129Z,31.9286
2024-02-10T00:14:37.162Z,28.7143
2024-02-10T00:15:37.139Z,30.5
2024-02-10T00:16:37.163Z,30.9286
2024-02-10T00:17:37.167Z,28.7143
2024-02-10T00:18:37.267Z,28.2143
2024-02-10T00:19:37.228Z,30.3571
2024-02-10T00:20:37.153Z,30.1429
2024-02-10T00:21:37.170Z,28
2024-02-10T00:22:37.245Z,30.9286
2024-02-10T00:23:37.197Z,29.6429
2024-02-10T00:24:37.202Z,32.5
2024-02-10T00:25:37.243Z,31
2024-02-10T00:26:37.210Z,29.9286
2024-02-10T00:27:37.217Z,29.4286
2024-02-10T00:28:37.462Z,28.9286
2024-02-10T00:29:38.348Z,28.3571
2024-02-10T00:30:37.231Z,32
2024-02-10T00:31:37.262Z,29.7143
2024-02-10T00:32:37.285Z,31.1429
2024-02-10T00:33:37.261Z,29.9286
2024-02-10T00:34:37.276Z,32.8571
2024-02-10T00:35:37.262Z,29.9286
2024-02-10T00:36:37.266Z,30.1429
2024-02-10T00:37:37.352Z,31.1429
2024-02-10T00:38:37.365Z,28.8571
2024-02-10T00:39:37.291Z,31.6429
2024-02-10T00:40:37.370Z,29.7143
2024-02-10T00:41:37.356Z,31.6429
2024-02-10T00:42:37.341Z,32
2024-02-10T00:43:37.345Z,30.5
2024-02-10T00:44:37.350Z,30
2024-02-10T00:45:37.349Z,31
2024-02-10T00:46:37.409Z,32.3571
2024-02-10T00:47:37.386Z,30
2024-02-10T00:48:37.423Z,32.7143
2024-02-10T00:49:37.433Z,32.4286
2024-02-10T00:50:37.377Z,32.1429
2024-02-10T00:51:37.416Z,29.5
2024-02-10T00:52:37.411Z,31.9286
2024-02-10T00:53:37.413Z,31.1429
2024-02-10T00:54:37.423Z,31.6429
2024-02-10T00:55:37.668Z,33.2143
2024-02-10T00:56:37.454Z,32.9286
2024-02-10T00:57:37.440Z,31.6429
2024-02-10T00:58:37.514Z,31.1429
2024-02-10T00:59:37.454Z,27.6429
2024-02-10T01:00:37.526Z,31.3571
2024-02-10T01:01:37.489Z,29.1429
2024-02-10T01:02:37.480Z,30.5
2024-02-10T01:03:37.517Z,30.2143
2024-02-10T01:04:37.543Z,29.5
2024-02-10T01:05:37.546Z,28.2143
2024-02-10T01:06:37.512Z,29.6429
2024-02-10T01:07:37.531Z,32.6429
2024-02-10T01:08:37.579Z,30.8571
2024-02-10T01:09:37.539Z,29.6429
2024-02-10T01:10:37.608Z,30.5
2024-02-10T01:11:37.551Z,32.1429
2024-02-10T01:12:37.556Z,31.2143
2024-02-10T01:13:37.635Z,30.3571
2024-02-10T01:14:37.567Z,29.9286
2024-02-10T01:15:37.587Z,31.9286
2024-02-10T01:16:37.598Z,30.9286
2024-02-10T01:17:37.601Z,29.9286
2024-02-10T01:18:37.793Z,30.2143
2024-02-10T01:19:37.606Z,31.7143
2024-02-10T01:20:37.650Z,28.3571
2024-02-10T01:21:37.640Z,31.5
2024-02-10T01:22:37.656Z,30.6429
2024-02-10T01:23:37.650Z,30.3571
2024-02-10T01:24:37.667Z,31.3571
2024-02-10T01:25:37.688Z,28.6429
2024-02-10T01:26:37.653Z,31.4286
2024-02-10T01:27:37.671Z,30.3571
2024-02-10T01:28:37.840Z,29.8571
2024-02-10T01:29:37.687Z,30.7143
2024-02-10T01:30:37.695Z,30.7143
2024-02-10T01:31:37.733Z,29.6429
2024-02-10T01:32:37.761Z,30.4286
2024-02-10T01:33:37.859Z,31
2024-02-10T01:34:37.784Z,29.2143
2024-02-10T01:35:37.733Z,29.4286
2024-02-10T01:36:37.740Z,29.4286
2024-02-10T01:37:37.766Z,30.2143
2024-02-10T01:38:37.789Z,31.4286
2024-02-10T01:39:37.760Z,29.5
2024-02-10T01:40:37.820Z,29.5
2024-02-10T01:41:37.760Z,28.2143
2024-02-10T01:42:37.794Z,30.4286
2024-02-10T01:43:37.826Z,30.6429
2024-02-10T01:44:37.777Z,29
2024-02-10T01:45:37.788Z,28.5
2024-02-10T01:46:37.807Z,30.3571
2024-02-10T01:47:38.097Z,29.7143
2024-02-10T01:48:38.044Z,30.6429
2024-02-10T01:49:37.885Z,32.3571
2024-02-10T01:50:38.016Z,30.9286
2024-02-10T01:51:37.845Z,30.3571
2024-02-10T01:52:37.978Z,31.7143
2024-02-10T01:53:37.866Z,30.1429
2024-02-10T01:54:37.887Z,31.3571
2024-02-10T01:55:37.916Z,29.2143
2024-02-10T01:56:37.888Z,30.4286
2024-02-10T01:57:37.896Z,31.6429
2024-02-10T01:58:38.001Z,30.1429
2024-02-10T01:59:37.901Z,31.1429
2024-02-10T02:00:37.928Z,28.5
2024-02-10T02:01:37.923Z,30.5
2024-02-10T02:02:37.952Z,30.7143
2024-02-10T02:03:37.979Z,32.7143
2024-02-10T02:04:38.057Z,28.4286
2024-02-10T02:05:37.984Z,30.2143
2024-02-10T02:06:37.963Z,31.1429
2024-02-10T02:07:37.993Z,30.2143
2024-02-10T02:08:37.985Z,30
2024-02-10T02:09:37.975Z,27.7143
2024-02-10T02:10:37.994Z,28.6429
2024-02-10T02:11:37.999Z,29.9286
2024-02-10T02:12:37.995Z,29.3571
2024-02-10T02:13:38.063Z,27.7143
2024-02-10T02:14:38.031Z,26.1429
2024-02-10T02:15:38.012Z,29.1429
2024-02-10T02:16:38.068Z,27.1429
2024-02-10T02:17:38.045Z,30.6429
2024-02-10T02:18:38.125Z,27.4286
2024-02-10T02:19:38.099Z,30.6429
2024-02-10T02:20:38.049Z,28.6429
2024-02-10T02:21:38.079Z,32.3571
2024-02-10T02:22:38.075Z,29.3571
2024-02-10T02:23:38.067Z,30.4286
2024-02-10T02:24:38.077Z,31
2024-02-10T02:25:38.109Z,26.6429
2024-02-10T02:26:38.098Z,28.6429
2024-02-10T02:27:38.102Z,26.9286
2024-02-10T02:28:38.209Z,29.1429
2024-02-10T02:29:38.161Z,26.9286
2024-02-10T02:30:40.029Z,29.3571
2024-02-10T02:31:38.199Z,27.6429
2024-02-10T02:32:38.177Z,27
2024-02-10T02:33:38.161Z,28.9286
2024-02-10T02:34:38.456Z,30
2024-02-10T02:35:38.204Z,26
2024-02-10T02:36:38.180Z,27.8571
2024-02-10T02:37:38.217Z,28.8571
2024-02-10T02:38:38.236Z,27.5
2024-02-10T02:39:38.190Z,27.2143
2024-02-10T02:40:38.253Z,29.6429
2024-02-10T02:41:38.206Z,28.7143
2024-02-10T02:42:38.213Z,28.6429
2024-02-10T02:43:38.268Z,27.4286
2024-02-10T02:44:38.236Z,26.9286
2024-02-10T02:45:38.270Z,27.2143
2024-02-10T02:46:38.302Z,28.5
2024-02-10T02:47:38.384Z,27
2024-02-10T02:48:38.448Z,27.7143
2024-02-10T02:49:38.326Z,27.7143
2024-02-10T02:50:38.270Z,28.9286
2024-02-10T02:51:38.275Z,28.7143
2024-02-10T02:52:38.284Z,26.4286
2024-02-10T02:53:38.293Z,27.5
2024-02-10T02:54:38.298Z,26.8571
2024-02-10T02:55:38.337Z,28.3571
2024-02-10T02:56:38.327Z,28.3571
2024-02-10T02:57:38.328Z,27.6429
2024-02-10T02:58:38.378Z,29.1429
2024-02-10T02:59:38.364Z,28.1429
2024-02-10T03:00:38.402Z,29.1429
2024-02-10T03:01:38.386Z,27.8571
2024-02-10T03:02:38.362Z,26.8571
2024-02-10T03:03:38.431Z,26.6429
2024-02-10T03:04:38.386Z,28.7143
2024-02-10T03:05:38.412Z,27
2024-02-10T03:06:38.411Z,27.3571
2024-02-10T03:07:38.437Z,29.4286
2024-02-10T03:08:38.443Z,27.6429
2024-02-10T03:09:38.403Z,26
2024-02-10T03:10:38.438Z,26.6429
2024-02-10T03:11:38.429Z,26.1429
2024-02-10T03:12:38.440Z,27.3571
2024-02-10T03:13:38.462Z,27.1429
2024-02-10T03:14:38.454Z,26.4286
2024-02-10T03:15:38.451Z,29.3571
2024-02-10T03:16:38.474Z,26.9286
2024-02-10T03:17:38.475Z,28.4286
2024-02-10T03:18:38.553Z,29.3571
2024-02-10T03:19:38.498Z,28.4286
2024-02-10T03:20:38.473Z,28.1429
2024-02-10T03:21:38.482Z,26.8571
2024-02-10T03:22:38.696Z,26.9286
2024-02-10T03:23:38.498Z,27.7143
2024-02-10T03:24:38.510Z,26.9286
2024-02-10T03:25:38.588Z,28.4286
2024-02-10T03:26:38.539Z,26.3571
2024-02-10T03:27:38.559Z,26.8571
2024-02-10T03:28:38.625Z,26.8571
2024-02-10T03:29:38.563Z,29.1429
2024-02-10T03:30:38.562Z,28.4286
2024-02-10T03:31:38.630Z,28.1429
2024-02-10T03:32:38.623Z,28.2143
2024-02-10T03:33:38.635Z,28.4286
2024-02-10T03:34:38.698Z,26.7143
2024-02-10T03:35:38.669Z,27.3571
2024-02-10T03:36:38.600Z,27.2143
2024-02-10T03:37:38.641Z,29.4286
2024-02-10T03:38:38.610Z,27.9286
2024-02-10T03:39:38.624Z,27.9286
2024-02-10T03:40:38.640Z,29.3571
2024-02-10T03:41:38.674Z,27.9286
2024-02-10T03:42:38.660Z,28.4286
2024-02-10T03:43:38.657Z,27.1429
2024-02-10T03:44:38.654Z,28.3571
2024-02-10T03:45:38.664Z,27.7143
2024-02-10T03:46:38.682Z,27.5
2024-02-10T03:47:38.702Z,26.4286
2024-02-10T03:48:38.813Z,27.4286
2024-02-10T03:49:38.706Z,28
2024-02-10T03:50:38.729Z,25.7143
2024-02-10T03:51:38.709Z,26.4286
2024-02-10T03:52:38.795Z,27.2143
2024-02-10T03:53:38.723Z,30
2024-02-10T03:54:38.738Z,28.4286
2024-02-10T03:55:38.831Z,28.8571
2024-02-10T03:56:38.804Z,27
2024-02-10T03:57:39.041Z,27.8571
2024-02-10T03:58:38.927Z,27.9286
2024-02-10T03:59:38.774Z,27.7143
2024-02-10T04:00:38.790Z,28.5
2024-02-10T04:01:38.794Z,28.2143
2024-02-10T04:02:38.774Z,28.4286
2024-02-10T04:03:38.823Z,26.7143
2024-02-10T04:04:38.901Z,27.9286
2024-02-10T04:05:38.788Z,27.6429
2024-02-10T04:06:38.808Z,26.7143
2024-02-10T04:07:38.818Z,27.3571
2024-02-10T04:08:38.800Z,28.2143
2024-02-10T04:09:38.846Z,29.3571
2024-02-10T04:10:38.825Z,27.5
2024-02-10T04:11:38.827Z,27.8571
2024-02-10T04:12:38.825Z,27.3571
2024-02-10T04:13:38.895Z,26.5
2024-02-10T04:14:38.867Z,27.3571
2024-02-10T04:15:38.848Z,28.4286
2024-02-10T04:16:38.884Z,28.6429
2024-02-10T04:17:38.899Z,29.5
2024-02-10T04:18:39.075Z,28.6429
2024-02-10T04:19:38.912Z,27.7143
2024-02-10T04:20:38.905Z,25.2143
2024-02-10T04:21:38.906Z,27.5
2024-02-10T04:22:38.955Z,26.9286
2024-02-10T04:23:38.950Z,27
2024-02-10T04:24:38.929Z,28.5
2024-02-10T04:25:38.994Z,28.2143
2024-02-10T04:26:38.944Z,28.7143
2024-02-10T04:27:38.930Z,27.7143
2024-02-10T04:28:39.047Z,28.1429
2024-02-10T04:29:38.961Z,28.6429
2024-02-10T04:30:38.969Z,26.6429
2024-02-10T04:31:38.999Z,27.6429
2024-02-10T04:32:39.050Z,26.8571
2024-02-10T04:33:39.146Z,27.7143
2024-02-10T04:34:39.081Z,29.4286
2024-02-10T04:35:39.026Z,28.7143
2024-02-10T04:36:39.037Z,27.3571
2024-02-10T04:37:39.108Z,27.5
2024-02-10T04:38:39.054Z,28
2024-02-10T04:39:39.051Z,26.8571
2024-02-10T04:40:39.101Z,27.6429
2024-02-10T04:41:39.069Z,26.1429
2024-02-10T04:42:39.074Z,27.5
2024-02-10T04:43:39.131Z,27
2024-02-10T04:44:39.095Z,26.7143
2024-02-10T04:45:39.101Z,26.1429
2024-02-10T04:46:39.178Z,26.6429
2024-02-10T04:47:39.138Z,27
2024-02-10T04:48:39.214Z,27
2024-02-10T04:49:39.229Z,27.4286
2024-02-10T04:50:39.163Z,27.3571
2024-02-10T04:51:41.369Z,26.8571
2024-02-10T04:52:39.180Z,25.3571
2024-02-10T04:53:39.143Z,28.6429
2024-02-10T04:54:39.156Z,26.9286
2024-02-10T04:55:39.166Z,24.8571
2024-02-10T04:56:39.185Z,26.6429
2024-02-10T04:57:39.167Z,25
2024-02-10T04:58:39.276Z,26.3571
2024-02-10T04:59:39.184Z,26.5
2024-02-10T05:00:39.213Z,26.4286
2024-02-10T05:01:39.280Z,28.5
2024-02-10T05:02:39.209Z,26.3571
2024-02-10T05:03:39.229Z,26.1429
2024-02-10T05:04:39.244Z,26.8571
2024-02-10T05:05:39.283Z,24.9286
2024-02-10T05:06:39.232Z,26
2024-02-10T05:07:39.282Z,27.2143
2024-02-10T05:08:39.223Z,27.8571
2024-02-10T05:09:39.224Z,27.2143
2024-02-10T05:10:39.300Z,25.4286
2024-02-10T05:11:39.264Z,25.5
2024-02-10T05:12:39.269Z,24.8571
2024-02-10T05:13:39.357Z,25.7143
2024-02-10T05:14:39.282Z,26.6429
2024-02-10T05:15:39.334Z,26.3571
2024-02-10T05:16:39.357Z,25.1429
2024-02-10T05:17:39.391Z,24.9286
2024-02-10T05:18:39.492Z,26.3571
2024-02-10T05:19:39.638Z,24.9286
2024-02-10T05:20:39.406Z,24.4286
2024-02-10T05:21:39.347Z,26
2024-02-10T05:22:39.354Z,27.1429
2024-02-10T05:23:39.331Z,25.4286
2024-02-10T05:24:39.378Z,27.3571
2024-02-10T05:25:39.401Z,27.4286
2024-02-10T05:26:39.388Z,25.7143
2024-02-10T05:27:39.385Z,23.9286
2024-02-10T05:28:39.427Z,25.7143
2024-02-10T05:29:39.417Z,26.1429
2024-02-10T05:30:39.411Z,25.9286
2024-02-10T05:31:39.570Z,26.8571
2024-02-10T05:32:39.447Z,26.7143
2024-02-10T05:33:39.458Z,27.2143
2024-02-10T05:34:39.513Z,25.7143
2024-02-10T05:35:39.444Z,27.2143
2024-02-10T05:36:39.447Z,27
2024-02-10T05:37:39.522Z,26.7143
2024-02-10T05:38:39.465Z,24.2143
2024-02-10T05:39:39.501Z,25
2024-02-10T05:40:39.505Z,25.5
2024-02-10T05:41:39.623Z,25.7143
2024-02-10T05:42:39.512Z,26
2024-02-10T05:43:39.583Z,24.6429
2024-02-10T05:44:39.558Z,24.8571
2024-02-10T05:45:39.541Z,25.2143
2024-02-10T05:46:39.578Z,25.4286
2024-02-10T05:47:39.635Z,23.9286
2024-02-10T05:48:39.847Z,26.2143
2024-02-10T05:49:39.601Z,25.5
2024-02-10T05:50:39.564Z,25.6429
2024-02-10T05:51:39.589Z,25.1429
2024-02-10T05:52:39.683Z,25.5
2024-02-10T05:53:39.650Z,25.8571
2024-02-10T05:54:39.619Z,24.7143
2024-02-10T05:55:39.696Z,26.5
2024-02-10T05:56:39.641Z,26
2024-02-10T05:57:39.662Z,23.3571
2024-02-10T05:58:39.685Z,25.4286
2024-02-10T05:59:39.664Z,25.2143
2024-02-10T06:00:39.945Z,24.7143
2024-02-10T06:01:39.724Z,26.9286
2024-02-10T06:02:39.710Z,25.3571
2024-02-10T06:03:39.770Z,21.7143
2024-02-10T06:04:39.738Z,24.2143
2024-02-10T06:05:39.864Z,25.1429
2024-02-10T06:06:39.735Z,26.2143
2024-02-10T06:07:39.857Z,25.2143
2024-02-10T06:08:39.746Z,25.1429
2024-02-10T06:09:39.742Z,24.5
2024-02-10T06:10:39.804Z,25.7143
2024-02-10T06:11:39.758Z,25.4286
2024-02-10T06:12:39.785Z,24.4286
2024-02-10T06:13:39.806Z,25.8571
2024-02-10T06:14:39.777Z,23.5
2024-02-10T06:15:39.780Z,25.3571
2024-02-10T06:16:39.871Z,25.1429
2024-02-10T06:17:39.843Z,24.7143
2024-02-10T06:18:39.790Z,23.2143
2024-02-10T06:19:39.861Z,25
2024-02-10T06:20:39.869Z,25.3571
2024-02-10T06:21:39.845Z,24.6429
2024-02-10T06:22:39.858Z,25.9286
2024-02-10T06:23:39.847Z,24.3571
2024-02-10T06:24:39.840Z,24.8571
2024-02-10T06:25:42.713Z,25.3571
2024-02-10T06:26:39.877Z,24
2024-02-10T06:27:39.882Z,23.9286
2024-02-10T06:28:39.870Z,25
2024-02-10T06:29:39.877Z,24
2024-02-10T06:30:39.883Z,23.6429
2024-02-10T06:31:39.949Z,27.2143
2024-02-10T06:32:39.936Z,25.3571
2024-02-10T06:33:39.928Z,23.9286
2024-02-10T06:34:39.950Z,25.7143
2024-02-10T06:35:39.936Z,23.9286
2024-02-10T06:36:39.933Z,25.6429
2024-02-10T06:37:39.957Z,23.4286
2024-02-10T06:38:39.944Z,25.7143
2024-02-10T06:39:39.953Z,26.4286
2024-02-10T06:40:40.039Z,25.2143
2024-02-10T06:41:39.967Z,25.5
2024-02-10T06:42:39.968Z,26
2024-02-10T06:43:40.153Z,25.9286
2024-02-10T06:44:39.981Z,25.9286
2024-02-10T06:45:39.993Z,26.4286
2024-02-10T06:46:40.022Z,25.4286
2024-02-10T06:47:40.074Z,26.2143
2024-02-10T06:48:40.217Z,26.3571
2024-02-10T06:49:40.083Z,27.3571
2024-02-10T06:50:41.802Z,26
2024-02-10T06:51:40.050Z,25.8571
2024-02-10T06:52:40.072Z,26.5
2024-02-10T06:53:40.061Z,28.5
2024-02-10T06:54:40.078Z,27.8571
2024-02-10T06:55:40.118Z,26
2024-02-10T06:56:40.077Z,27.6429
2024-02-10T06:57:40.087Z,26.7143
2024-02-10T06:58:40.131Z,26.9286
2024-02-10T06:59:40.102Z,26.5
2024-02-10T07:00:40.144Z,27.7143
2024-02-10T07:01:40.210Z,24.3571
2024-02-10T07:02:40.156Z,27.2143
2024-02-10T07:03:40.170Z,26.8571
2024-02-10T07:04:40.288Z,26.6429
2024-02-10T07:05:40.458Z,24.7143
2024-02-10T07:06:40.288Z,26
2024-02-10T07:07:40.376Z,26.2143
2024-02-10T07:08:40.237Z,27.4286
2024-02-10T07:09:40.251Z,26.2143
2024-02-10T07:10:40.274Z,23.7143
2024-02-10T07:11:40.249Z,24
2024-02-10T07:12:40.248Z,26.2143
2024-02-10T07:13:40.346Z,22.1429
2024-02-10T07:14:40.265Z,22.1429
2024-02-10T07:15:40.303Z,22.9286
2024-02-10T07:16:40.314Z,20.8571
2024-02-10T07:17:40.354Z,22.3571
2024-02-10T07:18:40.352Z,21.9286
2024-02-10T07:19:40.312Z,21.3571
2024-02-10T07:20:40.309Z,22.1429
2024-02-10T07:21:40.324Z,21.4286
2024-02-10T07:22:40.384Z,22.9286
2024-02-10T07:23:40.363Z,22.8571
2024-02-10T07:24:40.341Z,19.6429
2024-02-10T07:25:40.897Z,21.5
2024-02-10T07:26:40.345Z,21
2024-02-10T07:27:40.438Z,21.9286
2024-02-10T07:28:40.488Z,19.2143
2024-02-10T07:29:40.344Z,20.7143
2024-02-10T07:30:40.357Z,21.3571
2024-02-10T07:31:40.465Z,22.3571
2024-02-10T07:32:40.472Z,20.8571
2024-02-10T07:33:40.469Z,21.1429
2024-02-10T07:34:40.487Z,22.2143
2024-02-10T07:35:40.530Z,19.5
2024-02-10T07:36:40.437Z,20.8571
2024-02-10T07:37:40.489Z,18.8571
2024-02-10T07:38:40.530Z,19.5
2024-02-10T07:39:40.486Z,19.4286
2024-02-10T07:40:40.823Z,20.4286
2024-02-10T07:41:40.593Z,19.3571
2024-02-10T07:42:40.481Z,19.8571
2024-02-10T07:43:40.472Z,20.5
2024-02-10T07:44:40.547Z,19.6429
2024-02-10T07:45:40.469Z,19.7143
2024-02-10T07:46:40.627Z,18.8571
2024-02-10T07:47:40.582Z,20.4286
2024-02-10T07:48:40.578Z,18.7143
2024-02-10T07:49:40.593Z,19.8571
2024-02-10T07:50:40.563Z,17.6429
2024-02-10T07:51:40.607Z,18
2024-02-10T07:52:40.622Z,18.6429
2024-02-10T07:53:40.589Z,19.9286
2024-02-10T07:54:40.597Z,19.3571
2024-02-10T07:55:40.619Z,20
2024-02-10T07:56:40.556Z,20.6429
2024-02-10T07:57:40.565Z,18.7143
2024-02-10T07:58:40.600Z,20.3571
2024-02-10T07:59:40.618Z,22.7143
2024-02-10T08:00:40.689Z,24.5
2024-02-10T08:01:40.746Z,27
2024-02-10T08:02:40.669Z,29.1429
2024-02-10T08:03:40.677Z,27.9286
2024-02-10T08:04:40.717Z,26.6429
2024-02-10T08:05:40.756Z,25.4286
2024-02-10T08:06:40.694Z,26.3571
2024-02-10T08:07:40.746Z,26
2024-02-10T08:08:40.676Z,22.9286
2024-02-10T08:09:40.709Z,24
2024-02-10T08:10:40.790Z,23.5
2024-02-10T08:11:40.664Z,20.5
2024-02-10T08:12:40.694Z,20.8571
2024-02-10T08:13:40.830Z,22.1429
2024-02-10T08:14:40.739Z,21.4286
2024-02-10T08:15:40.798Z,20.8571
2024-02-10T08:16:40.748Z,21.2143
2024-02-10T08:17:40.811Z,19.4286
2024-02-10T08:18:40.769Z,20.5
2024-02-10T08:19:40.778Z,20
2024-02-10T08:20:40.760Z,20.1429
2024-02-10T08:21:40.769Z,20
2024-02-10T08:22:40.886Z,20.5
2024-02-10T08:23:40.762Z,19
2024-02-10T08:24:40.790Z,18.3571
2024-02-10T08:25:40.792Z,19.3571
2024-02-10T08:26:42.062Z,19.2143
2024-02-10T08:27:41.016Z,18.2143
2024-02-10T08:28:40.867Z,18.3571
2024-02-10T08:29:40.825Z,17.4286
2024-02-10T08:30:40.868Z,16.4286
2024-02-10T08:31:40.880Z,17.3571
2024-02-10T08:32:40.864Z,17.3571
2024-02-10T08:33:40.938Z,16.8571
2024-02-10T08:34:40.912Z,16.9286
2024-02-10T08:35:40.859Z,15.9286
2024-02-10T08:36:40.867Z,17
2024-02-10T08:37:40.930Z,16.7143
2024-02-10T08:38:40.897Z,15.6429
2024-02-10T08:39:40.884Z,16.2143
2024-02-10T08:40:40.918Z,15.5
2024-02-10T08:41:40.892Z,15.8571
2024-02-10T08:42:40.926Z,15.6429
2024-02-10T08:43:40.947Z,17.3571
2024-02-10T08:44:40.920Z,18.2143
2024-02-10T08:45:40.935Z,16.6429
2024-02-10T08:46:40.957Z,19.4286
2024-02-10T08:47:41.035Z,17.5
2024-02-10T08:48:41.141Z,18.2143
2024-02-10T08:49:41.022Z,17
2024-02-10T08:50:40.952Z,16.1429
2024-02-10T08:51:40.958Z,15.6429
2024-02-10T08:52:41.101Z,15.9286
2024-02-10T08:53:40.960Z,15.6429
2024-02-10T08:54:40.978Z,17.2143
2024-02-10T08:55:40.998Z,14.8571
2024-02-10T08:56:41.033Z,12.9286
2024-02-10T08:57:41.036Z,15.1429
2024-02-10T08:58:41.085Z,14.9286
2024-02-10T08:59:41.041Z,14.5
2024-02-10T09:00:41.106Z,14.6429
2024-02-10T09:01:41.076Z,14.9286
2024-02-10T09:02:41.059Z,15.5
2024-02-10T09:03:41.131Z,15.9286
2024-02-10T09:04:41.603Z,14.3571
2024-02-10T09:05:41.076Z,15.7143
2024-02-10T09:06:41.102Z,16.1429
2024-02-10T09:07:41.120Z,17.1429
2024-02-10T09:08:41.092Z,16.7143
2024-02-10T09:09:41.114Z,16.2143
2024-02-10T09:10:41.175Z,14.8571
2024-02-10T09:11:41.145Z,14.2143
2024-02-10T09:12:41.145Z,14.7143
2024-02-10T09:13:41.191Z,14.1429
2024-02-10T09:14:41.158Z,13.9286
2024-02-10T09:15:41.194Z,13.1429
2024-02-10T09:16:41.227Z,13.8571
2024-02-10T09:17:41.202Z,12.8571
2024-02-10T09:18:41.344Z,14.5
2024-02-10T09:19:41.352Z,13.4286
2024-02-10T09:20:41.213Z,13.1429
2024-02-10T09:21:41.207Z,12.8571
2024-02-10T09:22:41.243Z,12.3571
2024-02-10T09:23:41.217Z,13.3571
2024-02-10T09:24:41.543Z,13.3571
2024-02-10T09:25:41.268Z,13.2143
2024-02-10T09:26:41.232Z,13.2143
2024-02-10T09:27:41.230Z,12.9286
2024-02-10T09:28:41.292Z,13.3571
2024-02-10T09:29:41.259Z,13.5
2024-02-10T09:30:41.255Z,11.9286
2024-02-10T09:31:41.281Z,11.3571
2024-02-10T09:32:41.283Z,12.4286
2024-02-10T09:33:41.276Z,11.7143
2024-02-10T09:34:41.330Z,12.5
2024-02-10T09:35:42.070Z,12
2024-02-10T09:36:41.297Z,11.7143
2024-02-10T09:37:41.320Z,12.7143
2024-02-10T09:38:41.312Z,11.6429
2024-02-10T09:39:41.330Z,11.7143
2024-02-10T09:40:41.380Z,12
2024-02-10T09:41:41.338Z,11.6429
2024-02-10T09:42:41.336Z,12.5
2024-02-10T09:43:41.399Z,11.8571
2024-02-10T09:44:41.389Z,10.9286
2024-02-10T09:45:41.362Z,12.1429
2024-02-10T09:46:41.389Z,12.2143
2024-02-10T09:47:41.382Z,12.4286
2024-02-10T09:48:41.433Z,11.3571
2024-02-10T09:49:41.425Z,10.9286
2024-02-10T09:50:41.419Z,11.2143
2024-02-10T09:51:41.398Z,11.6429
2024-02-10T09:52:41.470Z,13.2143
2024-02-10T09:53:41.483Z,13.3571
2024-02-10T09:54:41.422Z,12.5
2024-02-10T09:55:41.510Z,11.1429
2024-02-10T09:56:41.463Z,13.5
2024-02-10T09:57:41.451Z,12.7143
2024-02-10T09:58:41.522Z,12.6429
2024-02-10T09:59:41.461Z,13
2024-02-10T10:00:41.548Z,11.1429
2024-02-10T10:01:41.481Z,11.6429
2024-02-10T10:02:41.492Z,11.8571
2024-02-10T10:03:41.579Z,12.6429
2024-02-10T10:04:41.563Z,12.3571
2024-02-10T10:05:41.544Z,12
2024-02-10T10:06:41.505Z,11.2143
2024-02-10T10:07:41.568Z,11.2143
2024-02-10T10:08:41.521Z,12.6429
2024-02-10T10:09:41.533Z,11.5
2024-02-10T10:10:41.572Z,13.4286
2024-02-10T10:11:41.573Z,12.8571
2024-02-10T10:12:41.567Z,10
2024-02-10T10:13:41.609Z,11.7143
2024-02-10T10:14:41.548Z,11.6429
2024-02-10T10:15:41.589Z,11.5
2024-02-10T10:16:41.598Z,11
2024-02-10T10:17:41.632Z,11.5
2024-02-10T10:18:41.615Z,11.3571
2024-02-10T10:19:41.618Z,12.8571
2024-02-10T10:20:41.629Z,12.4286
2024-02-10T10:21:41.622Z,13
2024-02-10T10:22:41.655Z,11.6429
2024-02-10T10:23:41.635Z,11.6429
2024-02-10T10:24:41.643Z,12
2024-02-10T10:25:41.714Z,11.9286
2024-02-10T10:26:41.672Z,11.3571
2024-02-10T10:27:41.681Z,11.7143
2024-02-10T10:28:41.748Z,15.5
2024-02-10T10:29:41.664Z,14.9286
2024-02-10T10:30:41.676Z,10.4286
2024-02-10T10:31:41.675Z,11.9286
2024-02-10T10:32:41.797Z,11.4286
2024-02-10T10:33:41.827Z,11.3571
2024-02-10T10:34:41.749Z,11.3571
2024-02-10T10:35:41.719Z,13.3571
2024-02-10T10:36:41.725Z,13.9286
2024-02-10T10:37:41.798Z,13
2024-02-10T10:38:41.721Z,13.9286
2024-02-10T10:39:41.775Z,12.6429
2024-02-10T10:40:41.800Z,12
2024-02-10T10:41:41.744Z,13
2024-02-10T10:42:41.742Z,13.9286
2024-02-10T10:43:41.766Z,11.7143
2024-02-10T10:44:41.761Z,13.4286
2024-02-10T10:45:41.766Z,13.5
2024-02-10T10:46:41.798Z,19.8571
2024-02-10T10:47:41.867Z,18.6429
2024-02-10T10:48:42.006Z,15.9286
2024-02-10T10:49:41.904Z,15.1429
2024-02-10T10:50:41.809Z,11.8571
2024-02-10T10:51:41.818Z,13.4286
2024-02-10T10:52:41.854Z,13.3571
2024-02-10T10:53:41.855Z,13.5
2024-02-10T10:54:41.930Z,13.1429
2024-02-10T10:55:41.884Z,17.7143
2024-02-10T10:56:41.840Z,12.9286
2024-02-10T10:57:41.859Z,13.5
2024-02-10T10:58:41.939Z,14.2143
2024-02-10T10:59:41.876Z,13.9286
2024-02-10T11:00:41.907Z,14.8571
2024-02-10T11:01:41.954Z,13.1429
2024-02-10T11:02:45.312Z,16.8571
2024-02-10T11:03:41.977Z,14.1429
2024-02-10T11:04:41.919Z,13.5
2024-02-10T11:05:41.942Z,13.6429
2024-02-10T11:06:41.961Z,12.6429
2024-02-10T11:07:41.960Z,13
2024-02-10T11:08:41.962Z,13.3571
2024-02-10T11:09:41.928Z,12.5
2024-02-10T11:10:41.986Z,12.8571
2024-02-10T11:11:41.949Z,12.6429
2024-02-10T11:12:41.959Z,12.8571
2024-02-10T11:13:42.014Z,11.7143
2024-02-10T11:14:42.005Z,12.4286
2024-02-10T11:15:42.244Z,12.2143
2024-02-10T11:16:42.050Z,13.2143
2024-02-10T11:17:42.067Z,11.8571
2024-02-10T11:18:42.088Z,10.8571
2024-02-10T11:19:42.076Z,13
2024-02-10T11:20:42.038Z,11.9286
2024-02-10T11:21:42.040Z,13.3571
2024-02-10T11:22:42.162Z,18.7143
2024-02-10T11:23:42.048Z,18.3571
2024-02-10T11:24:42.046Z,17.4286
2024-02-10T11:25:42.108Z,13.1429
2024-02-10T11:26:42.087Z,11.9286
2024-02-10T11:27:42.094Z,11.9286
2024-02-10T11:28:42.134Z,12.4286
2024-02-10T11:29:42.104Z,11.7143
2024-02-10T11:30:44.080Z,11.9286
2024-02-10T11:31:42.231Z,10.9286
2024-02-10T11:32:42.200Z,11.8571
2024-02-10T11:33:42.302Z,11.5
2024-02-10T11:34:42.244Z,11.2143
2024-02-10T11:35:42.140Z,11.3571
2024-02-10T11:36:42.172Z,11.9286
2024-02-10T11:37:42.351Z,10.6429
2024-02-10T11:38:42.213Z,13
2024-02-10T11:39:42.159Z,11.2143
2024-02-10T11:40:42.199Z,11.3571
2024-02-10T11:41:42.203Z,10.3571
2024-02-10T11:42:42.189Z,11.1429
2024-02-10T11:43:42.250Z,11.5
2024-02-10T11:44:42.204Z,11.7143
2024-02-10T11:45:42.227Z,11.5
2024-02-10T11:46:42.261Z,10.7143
2024-02-10T11:47:42.222Z,11.5
2024-02-10T11:48:42.334Z,10.5
2024-02-10T11:49:42.263Z,10.4286
2024-02-10T11:50:52.562Z,11
2024-02-10T11:51:42.259Z,11.8571
2024-02-10T11:52:42.272Z,11.2143
2024-02-10T11:53:42.264Z,11.7143
2024-02-10T11:54:42.279Z,10.3571
2024-02-10T11:55:42.343Z,13.3571
2024-02-10T11:56:42.297Z,11.8571
2024-02-10T11:57:42.309Z,10.1429
2024-02-10T11:58:42.321Z,13.7143
2024-02-10T11:59:42.328Z,14.6429
2024-02-10T12:00:42.377Z,17.2143
2024-02-10T12:01:42.420Z,17.7143
2024-02-10T12:02:42.348Z,13.4286
2024-02-10T12:03:42.378Z,12.9286
2024-02-10T12:04:42.529Z,13
2024-02-10T12:05:42.504Z,12.1429
2024-02-10T12:06:42.368Z,12.2143
2024-02-10T12:07:42.396Z,11.7143
2024-02-10T12:08:42.379Z,12.4286
2024-02-10T12:09:42.401Z,13.1429
2024-02-10T12:10:42.434Z,13.7143
2024-02-10T12:11:44.187Z,15.6429
2024-02-10T12:12:42.414Z,13.6429
2024-02-10T12:13:42.514Z,13.6429
2024-02-10T12:14:42.447Z,13.5
2024-02-10T12:15:42.440Z,12.3571
2024-02-10T12:16:42.507Z,13.5
2024-02-10T12:17:42.493Z,12.5
2024-02-10T12:18:42.518Z,14.3571
2024-02-10T12:19:42.522Z,15.8571
2024-02-10T12:20:42.481Z,17.3571
2024-02-10T12:21:42.683Z,13.6429
2024-02-10T12:22:42.528Z,12.9286